Time;durP1;ratioP1;P1;durP2;ratioP2;P2;SDS_P1;SDS_P2;PMS_P1;PMS_P2;Temp;Humidity;BMP_temperature;BMP_pressure;BME280_temperature;BME280_humidity;BME280_pressure;Samples;Min_cycle;Max_cycle;Signal;HPM_P1;HPM_P2
2023/12/07 00:01:13;;;;;;;2.83;2.10;;;;;;;22.34;42.94;100796.81;4553301;28;20036;-55
2023/12/07 00:03:23;;;;;;;3.05;2.33;;;;;;;22.33;42.59;100798.00;4554189;28;20114;-55
2023/12/07 00:05:34;;;;;;;2.50;2.00;;;;;;;22.32;42.17;100797.19;4537582;28;20037;-56
2023/12/07 00:07:44;;;;;;;2.83;1.80;;;;;;;22.32;41.87;100797.19;4554042;28;20462;-56
2023/12/07 00:09:54;;;;;;;2.92;2.13;;;;;;;22.34;42.22;100799.69;4553276;28;20398;-53
2023/12/07 00:12:06;;;;;;;3.38;2.35;;;;;;;22.31;42.05;100800.44;4542463;28;20525;-54
2023/12/07 00:14:16;;;;;;;5.97;3.05;;;;;;;22.33;41.78;100801.72;4553515;28;20534;-54
2023/12/07 00:16:27;;;;;;;3.50;2.33;;;;;;;22.32;42.31;100807.84;4553353;28;20025;-53
2023/12/07 00:18:38;;;;;;;3.72;2.30;;;;;;;22.32;42.49;100807.84;4537820;28;20048;-52
2023/12/07 00:20:48;;;;;;;3.17;2.10;;;;;;;22.33;41.98;100816.09;4553218;28;20047;-55
2023/12/07 00:22:58;;;;;;;2.72;1.98;;;;;;;22.34;41.62;100816.94;4554187;28;20029;-54
2023/12/07 00:25:09;;;;;;;3.17;2.00;;;;;;;22.30;41.86;100805.34;4555174;28;20041;-54
2023/12/07 00:27:19;;;;;;;2.65;1.95;;;;;;;22.30;41.52;100816.00;4555633;28;20118;-56
2023/12/07 00:29:30;;;;;;;2.47;1.95;;;;;;;22.29;41.55;100820.94;4553629;28;20067;-54
2023/12/07 00:31:41;;;;;;;2.72;2.17;;;;;;;22.23;41.72;100827.34;4553642;28;20398;-54
2023/12/07 00:33:51;;;;;;;2.70;1.88;;;;;;;22.25;41.81;100834.38;4555017;28;20071;-54
2023/12/07 00:36:02;;;;;;;2.22;1.85;;;;;;;22.25;41.97;100827.81;4543474;28;20045;-54
2023/12/07 00:38:12;;;;;;;2.38;1.80;;;;;;;22.24;42.26;100829.84;4554531;28;20029;-52
2023/12/07 00:40:23;;;;;;;2.15;1.60;;;;;;;22.27;41.91;100836.88;4553552;28;20045;-55
2023/12/07 00:42:37;;;;;;;3.28;2.20;;;;;;;22.27;41.71;100836.88;4554289;28;20036;-54
2023/12/07 00:44:48;;;;;;;2.47;1.80;;;;;;;22.23;41.58;100834.75;4542229;28;20132;-52
2023/12/07 00:46:58;;;;;;;2.17;1.75;;;;;;;22.23;41.40;100839.69;4554039;28;20091;-53
2023/12/07 00:49:08;;;;;;;2.67;1.75;;;;;;;22.26;41.36;100843.84;4552886;28;20936;-51
2023/12/07 00:51:19;;;;;;;3.08;2.10;;;;;;;22.27;41.27;100834.00;4553522;28;20051;-53
2023/12/07 00:53:29;;;;;;;3.03;2.13;;;;;;;22.28;41.00;100839.38;4553346;28;20038;-52
2023/12/07 00:55:40;;;;;;;2.47;1.88;;;;;;;22.26;41.37;100844.69;4554350;28;20106;-55
2023/12/07 00:57:50;;;;;;;2.42;1.95;;;;;;;22.23;41.01;100847.47;4553226;28;20185;-55
2023/12/07 01:00:01;;;;;;;3.08;2.00;;;;;;;22.23;41.50;100847.47;4553405;28;20082;-56
2023/12/07 01:02:11;;;;;;;2.20;1.88;;;;;;;22.25;41.71;100856.56;4553385;28;22132;-53
2023/12/07 01:04:21;;;;;;;2.13;1.90;;;;;;;22.25;41.08;100853.69;4552896;28;20060;-54
2023/12/07 01:06:32;;;;;;;2.78;2.00;;;;;;;22.27;40.79;100857.00;4553282;28;20509;-55
2023/12/07 01:08:43;;;;;;;3.38;2.30;;;;;;;22.28;40.62;100858.69;4552045;28;26670;-55
2023/12/07 01:10:53;;;;;;;2.50;1.83;;;;;;;22.29;40.96;100848.84;4553154;28;20060;-56
2023/12/07 01:13:03;;;;;;;2.80;2.10;;;;;;;22.27;40.81;100857.84;4552329;28;20977;-55
2023/12/07 01:15:14;;;;;;;1.92;1.70;;;;;;;22.26;40.65;100861.94;4552129;28;20045;-51
2023/12/07 01:17:24;;;;;;;2.38;1.80;;;;;;;22.27;40.49;100854.13;4552213;28;20059;-54
2023/12/07 01:19:35;;;;;;;2.25;1.80;;;;;;;22.26;40.83;100856.19;4552643;28;20045;-51
2023/12/07 01:21:45;;;;;;;3.00;1.90;;;;;;;22.28;39.94;100852.94;4553694;28;20027;-52
2023/12/07 01:23:58;;;;;;;2.90;2.10;;;;;;;22.27;40.62;100851.25;4552801;28;20051;-54
2023/12/07 01:26:08;;;;;;;2.55;2.00;;;;;;;22.28;41.03;100858.69;4552293;28;20028;-56
2023/12/07 01:28:18;;;;;;;2.08;1.60;;;;;;;22.28;40.95;100858.69;4552212;28;20941;-52
2023/12/07 01:30:29;;;;;;;2.80;1.98;;;;;;;22.28;41.40;100852.94;4552234;28;26209;-53
2023/12/07 01:32:39;;;;;;;2.35;1.60;;;;;;;22.26;40.74;100850.44;4551533;28;20037;-55
2023/12/07 01:34:49;;;;;;;2.22;1.70;;;;;;;22.27;40.74;100857.00;4552647;28;20043;-51
2023/12/07 01:37:00;;;;;;;2.60;2.00;;;;;;;22.26;41.23;100861.09;4552490;28;20482;-55
2023/12/07 01:39:12;;;;;;;2.30;1.73;;;;;;;22.24;40.79;100852.84;4552516;28;20051;-56
2023/12/07 01:41:23;;;;;;;2.78;1.83;;;;;;;22.23;40.68;100859.81;4553210;28;20040;-53
2023/12/07 01:43:33;;;;;;;2.03;1.67;;;;;;;22.23;40.51;100856.09;4542364;28;26351;-55
2023/12/07 01:45:43;;;;;;;2.33;1.80;;;;;;;22.25;40.50;100862.31;4551709;28;20115;-52
2023/12/07 01:47:56;;;;;;;2.53;1.90;;;;;;;22.23;41.03;100863.50;4553406;28;20024;-51
2023/12/07 01:50:09;;;;;;;1.90;1.70;;;;;;;22.26;41.37;100867.69;4553418;28;20067;-51
2023/12/07 01:52:22;;;;;;;2.17;1.73;;;;;;;22.25;40.66;100865.19;4553441;28;20595;-53
2023/12/07 01:54:33;;;;;;;2.08;1.60;;;;;;;22.26;40.91;100866.84;4541308;28;20069;-51
2023/12/07 01:56:44;;;;;;;2.60;1.90;;;;;;;22.21;40.78;100873.72;4554432;28;20090;-53
2023/12/07 01:58:54;;;;;;;2.22;1.80;;;;;;;22.20;40.58;100880.66;4552470;28;20045;-53
2023/12/07 02:01:05;;;;;;;1.95;1.70;;;;;;;22.20;40.39;100874.91;4553820;28;20041;-56
2023/12/07 02:03:17;;;;;;;1.63;1.38;;;;;;;22.19;40.28;100879.00;4553329;28;21008;-56
2023/12/07 02:05:27;;;;;;;2.22;1.67;;;;;;;22.20;40.62;100881.50;4553533;28;20651;-52
2023/12/07 02:07:40;;;;;;;2.10;1.70;;;;;;;22.21;40.68;100883.16;4551949;28;20048;-54
2023/12/07 02:09:50;;;;;;;2.63;1.92;;;;;;;22.21;40.70;100882.34;4554620;28;20041;-54
2023/12/07 02:12:01;;;;;;;2.60;1.80;;;;;;;22.20;40.83;100884.38;4553845;28;20036;-55
2023/12/07 02:14:12;;;;;;;2.15;1.80;;;;;;;22.17;40.93;100885.13;4551282;28;20072;-55
2023/12/07 02:16:39;;;;;;;2.00;1.60;;;;;;;22.16;41.50;100892.09;4552916;28;20169;-53
2023/12/07 02:18:57;;;;;;;2.00;1.60;;;;;;;22.17;40.78;100885.13;4551045;28;20063;-51
2023/12/07 02:21:22;;;;;;;2.42;1.70;;;;;;;22.18;40.03;100883.09;4552198;28;20053;-52
2023/12/07 02:23:33;;;;;;;2.25;1.67;;;;;;;22.17;39.75;100885.13;4541940;28;20044;-52
2023/12/07 02:25:52;;;;;;;2.22;1.60;;;;;;;22.18;39.55;100883.09;4552436;28;20056;-54
2023/12/07 02:28:02;;;;;;;1.90;1.48;;;;;;;22.19;40.21;100888.47;4552882;28;20025;-52
2023/12/07 02:30:13;;;;;;;2.53;1.70;;;;;;;22.18;40.49;100895.41;4552425;28;20037;-53
2023/12/07 02:32:24;;;;;;;2.08;1.52;;;;;;;22.18;39.93;100897.47;4552710;28;21636;-52
2023/12/07 02:34:34;;;;;;;2.00;1.50;;;;;;;22.18;40.44;100895.41;4540805;28;20176;-54
2023/12/07 02:36:48;;;;;;;1.92;1.45;;;;;;;22.18;40.32;100889.66;4552238;28;20021;-55
2023/12/07 02:39:01;;;;;;;1.85;1.67;;;;;;;22.19;39.98;100902.84;4552088;28;20044;-54
2023/12/07 02:41:12;;;;;;;1.42;1.33;;;;;;;22.17;40.03;100899.50;4552941;28;20603;-51
2023/12/07 02:43:22;;;;;;;2.25;1.60;;;;;;;22.16;40.02;100897.00;4551881;28;20054;-54
2023/12/07 02:45:33;;;;;;;1.90;1.70;;;;;;;22.16;39.83;100903.59;4551041;28;20036;-55
2023/12/07 02:47:45;;;;;;;2.20;1.73;;;;;;;22.19;39.71;100907.75;4551971;28;20033;-55
2023/12/07 02:49:55;;;;;;;2.10;1.55;;;;;;;22.17;40.45;100902.38;4550937;28;20044;-51
2023/12/07 02:52:06;;;;;;;1.90;1.60;;;;;;;22.18;39.92;100906.09;4541853;28;20048;-55
2023/12/07 02:54:16;;;;;;;1.98;1.70;;;;;;;22.17;40.01;100899.50;4552157;28;20033;-55
2023/12/07 02:56:26;;;;;;;1.67;1.50;;;;;;;22.17;40.25;100901.53;4552367;28;20056;-54
2023/12/07 02:58:37;;;;;;;2.67;1.67;;;;;;;22.18;39.62;100906.91;4552108;28;20070;-52
2023/12/07 03:00:47;;;;;;;2.10;1.70;;;;;;;22.17;39.05;100902.38;4551443;28;20045;-53
2023/12/07 03:02:57;;;;;;;2.35;1.75;;;;;;;22.13;39.40;100901.47;4551205;28;20490;-53
2023/12/07 03:05:08;;;;;;;2.22;1.65;;;;;;;22.15;39.93;100901.91;4532196;28;20532;-55
2023/12/07 03:07:18;;;;;;;1.92;1.60;;;;;;;22.17;39.98;100915.91;4551977;28;20105;-54
2023/12/07 03:09:28;;;;;;;1.83;1.55;;;;;;;22.15;40.23;100896.16;4551207;28;24445;-55
2023/12/07 03:11:39;;;;;;;1.73;1.50;;;;;;;22.16;40.57;100902.75;4551464;28;20033;-52
2023/12/07 03:13:49;;;;;;;2.00;1.70;;;;;;;22.15;40.10;100907.66;4551736;28;20044;-55
2023/12/07 03:16:00;;;;;;;2.15;1.70;;;;;;;22.18;40.08;100911.84;4542428;28;20393;-53
2023/12/07 03:18:10;;;;;;;2.50;1.80;;;;;;;22.16;39.99;100908.50;4552470;28;20040;-52
2023/12/07 03:20:21;;;;;;;1.83;1.67;;;;;;;22.17;39.79;100911.00;4552672;28;20032;-54
2023/12/07 03:22:31;;;;;;;2.13;1.77;;;;;;;22.15;39.49;100910.53;4551663;28;20037;-54
2023/12/07 03:24:47;;;;;;;2.63;1.73;;;;;;;22.14;40.01;100908.88;4551977;28;20029;-54
2023/12/07 03:26:57;;;;;;;2.03;1.80;;;;;;;22.15;39.78;100907.66;4551195;28;20036;-52
2023/12/07 03:29:08;;;;;;;2.20;2.00;;;;;;;22.11;39.88;100903.88;4539423;28;20284;-55
2023/12/07 03:31:18;;;;;;;1.77;1.60;;;;;;;22.12;40.40;100908.41;4550631;28;20039;-54
2023/12/07 03:33:29;;;;;;;2.40;1.77;;;;;;;22.12;40.01;100908.41;4551147;28;20083;-55
2023/12/07 03:35:39;;;;;;;2.13;1.75;;;;;;;22.13;39.78;100904.34;4553399;28;20041;-54
2023/12/07 03:37:49;;;;;;;1.95;1.58;;;;;;;22.14;39.30;100903.13;4543735;28;20091;-54
2023/12/07 03:40:00;;;;;;;2.30;1.80;;;;;;;22.15;39.60;100901.09;4555342;28;20044;-54
2023/12/07 03:42:10;;;;;;;1.80;1.60;;;;;;;22.15;39.41;100901.09;4554527;28;20063;-53
2023/12/07 03:44:21;;;;;;;2.08;1.70;;;;;;;22.15;39.84;100901.91;4555779;28;20047;-55
2023/12/07 03:46:31;;;;;;;2.60;1.55;;;;;;;22.15;39.36;100906.84;4555550;28;20091;-55
2023/12/07 03:48:42;;;;;;;2.05;1.63;;;;;;;22.13;39.37;100909.25;4553644;28;20045;-54
2023/12/07 03:50:52;;;;;;;1.92;1.55;;;;;;;22.11;39.28;100905.91;4557272;28;20040;-54
2023/12/07 03:53:03;;;;;;;2.10;1.60;;;;;;;22.10;39.47;100910.81;4555562;28;20071;-54
2023/12/07 03:55:13;;;;;;;1.75;1.52;;;;;;;22.12;39.07;100908.41;4538167;28;20028;-55
2023/12/07 03:57:23;;;;;;;2.25;1.70;;;;;;;22.13;38.92;100909.25;4554061;28;20045;-55
2023/12/07 03:59:36;;;;;;;2.13;1.77;;;;;;;22.13;38.78;100907.22;4555367;28;20052;-53
2023/12/07 04:01:46;;;;;;;1.60;1.42;;;;;;;22.14;39.41;100908.03;4553734;28;20045;-52
2023/12/07 04:04:00;;;;;;;2.28;1.75;;;;;;;22.14;39.26;100906.00;4554437;28;20470;-53
2023/12/07 04:06:10;;;;;;;2.03;1.65;;;;;;;22.14;38.92;100900.25;4555116;28;20044;-55
2023/12/07 04:08:21;;;;;;;2.10;1.52;;;;;;;22.14;39.06;100906.00;4555346;28;23130;-55
2023/12/07 04:10:31;;;;;;;1.92;1.50;;;;;;;22.13;38.94;100898.59;4553239;28;20052;-56
2023/12/07 04:12:42;;;;;;;2.08;1.60;;;;;;;22.15;38.70;100909.72;4542341;28;20112;-54
2023/12/07 04:14:52;;;;;;;2.08;1.52;;;;;;;22.12;39.08;100914.16;4555277;28;20052;-52
2023/12/07 04:17:03;;;;;;;1.88;1.63;;;;;;;22.13;39.01;100912.13;4555582;28;20037;-55
2023/12/07 04:19:13;;;;;;;2.08;1.50;;;;;;;22.11;38.74;100911.66;4553923;28;20047;-53
2023/12/07 04:21:23;;;;;;;1.70;1.60;;;;;;;22.11;38.79;100909.63;4554637;28;20094;-52
2023/12/07 04:23:34;;;;;;;2.28;1.60;;;;;;;22.10;38.63;100918.63;4555379;28;20061;-54
2023/12/07 04:25:44;;;;;;;1.75;1.45;;;;;;;22.10;39.20;100910.81;4554365;28;20064;-55
2023/12/07 04:27:55;;;;;;;1.75;1.50;;;;;;;22.10;38.75;100907.94;4555190;28;20045;-55
2023/12/07 04:30:06;;;;;;;2.33;1.80;;;;;;;22.06;38.67;100904.16;4554242;28;23890;-56
2023/12/07 04:32:16;;;;;;;2.00;1.60;;;;;;;22.08;38.27;100906.66;4554816;28;20047;-56
2023/12/07 04:34:26;;;;;;;2.20;1.63;;;;;;;22.09;38.65;100909.16;4537297;28;20034;-56
2023/12/07 04:36:37;;;;;;;2.42;1.83;;;;;;;22.07;38.88;100905.81;4554528;28;20098;-54
2023/12/07 04:38:47;;;;;;;1.67;1.30;;;;;;;22.07;38.44;100914.44;4559216;28;20035;-55
2023/12/07 04:40:57;;;;;;;1.63;1.40;;;;;;;22.08;38.71;100913.25;4555895;28;20060;-56
2023/12/07 04:43:08;;;;;;;2.08;1.60;;;;;;;22.03;38.83;100901.16;4553643;28;20032;-54
2023/12/07 04:45:19;;;;;;;1.77;1.50;;;;;;;22.07;38.37;100917.31;4553830;28;20568;-55
2023/12/07 04:47:31;;;;;;;1.83;1.50;;;;;;;22.08;38.47;100923.91;4555117;28;20060;-55
2023/12/07 04:49:42;;;;;;;2.33;1.45;;;;;;;22.07;38.58;100920.19;4554260;28;20135;-51
2023/12/07 04:51:52;;;;;;;1.70;1.60;;;;;;;22.10;38.50;100921.50;4553348;28;20489;-52
2023/12/07 04:54:03;;;;;;;1.50;1.35;;;;;;;22.07;38.34;100916.47;4554310;28;20055;-56
2023/12/07 04:56:13;;;;;;;1.48;1.33;;;;;;;22.08;38.04;100918.16;4554182;28;20055;-55
2023/12/07 04:58:23;;;;;;;1.80;1.50;;;;;;;22.09;38.89;100914.06;4553432;28;20035;-56
2023/12/07 05:00:34;;;;;;;1.58;1.40;;;;;;;22.06;38.57;100921.38;4552195;28;20080;-55
2023/12/07 05:02:44;;;;;;;1.95;1.23;;;;;;;22.05;38.40;100919.72;4535990;28;20041;-54
2023/12/07 05:04:55;;;;;;;1.85;1.40;;;;;;;22.07;38.02;100922.22;4554609;28;20115;-55
2023/12/07 05:07:05;;;;;;;1.67;1.30;;;;;;;22.05;39.04;100925.47;4553913;28;20481;-56
2023/12/07 05:09:16;;;;;;;1.65;1.45;;;;;;;22.04;38.83;100922.97;4554870;28;20048;-56
2023/12/07 05:11:26;;;;;;;1.75;1.42;;;;;;;22.05;38.18;100918.88;4555021;28;20128;-54
2023/12/07 05:13:36;;;;;;;1.60;1.50;;;;;;;22.03;38.10;100916.38;4553245;28;20040;-55
2023/12/07 05:15:47;;;;;;;2.55;1.60;;;;;;;22.04;38.37;100926.66;4552653;28;20276;-52
2023/12/07 05:17:57;;;;;;;2.67;1.45;;;;;;;22.04;38.36;100929.53;4553331;28;20414;-54
2023/12/07 05:20:08;;;;;;;1.70;1.50;;;;;;;22.04;39.01;100926.66;4553597;28;20028;-53
2023/12/07 05:22:19;;;;;;;2.10;1.80;;;;;;;22.06;38.01;100921.38;4553613;28;20068;-54
2023/12/07 05:24:31;;;;;;;1.83;1.40;;;;;;;22.06;38.25;100923.41;4553200;28;20150;-54
2023/12/07 05:26:42;;;;;;;1.52;1.42;;;;;;;22.05;38.03;100925.47;4554063;28;20044;-54
2023/12/07 05:28:53;;;;;;;1.92;1.48;;;;;;;22.04;37.99;100926.66;4553645;28;20635;-55
2023/12/07 05:31:03;;;;;;;2.03;1.58;;;;;;;22.04;38.19;100929.53;4554039;28;20035;-54
2023/12/07 05:33:15;;;;;;;1.90;1.40;;;;;;;22.05;38.14;100928.34;4554296;28;21063;-54
2023/12/07 05:35:25;;;;;;;1.90;1.70;;;;;;;22.04;38.21;100929.53;4552672;28;20064;-55
2023/12/07 05:37:35;;;;;;;1.42;1.30;;;;;;;22.04;38.21;100935.28;4552542;28;20111;-52
2023/12/07 05:39:46;;;;;;;1.80;1.45;;;;;;;22.05;37.67;100942.72;4553203;28;20048;-52
2023/12/07 05:41:56;;;;;;;1.67;1.38;;;;;;;22.05;37.63;100931.22;4554882;28;20029;-56
2023/12/07 05:44:07;;;;;;;1.60;1.20;;;;;;;22.04;37.80;100935.28;4553343;28;20477;-53
2023/12/07 05:46:19;;;;;;;1.45;1.30;;;;;;;22.06;37.97;100944.38;4552840;28;20037;-53
2023/12/07 05:48:29;;;;;;;1.40;1.30;;;;;;;22.09;37.96;100939.94;4541000;28;20045;-51
2023/12/07 05:50:39;;;;;;;1.70;1.33;;;;;;;22.06;37.95;100944.38;4553640;28;20041;-52
2023/12/07 05:52:50;;;;;;;1.30;1.20;;;;;;;22.05;38.38;100948.47;4552948;28;20044;-52
2023/12/07 05:55:01;;;;;;;1.15;1.05;;;;;;;22.05;38.35;100947.63;4553382;28;20033;-55
2023/12/07 05:57:11;;;;;;;1.30;1.20;;;;;;;22.06;37.94;100950.13;4551804;28;20560;-54
2023/12/07 05:59:22;;;;;;;1.52;1.30;;;;;;;22.06;37.90;100941.50;4552769;28;20090;-55
2023/12/07 06:01:32;;;;;;;2.13;1.33;;;;;;;22.05;37.81;100942.72;4552661;28;20025;-54
2023/12/07 06:03:44;;;;;;;1.35;1.20;;;;;;;22.02;37.85;100949.19;4553525;28;20174;-55
2023/12/07 06:05:55;;;;;;;1.33;1.23;;;;;;;22.04;37.88;100940.22;4554003;28;20058;-53
2023/12/07 06:08:06;;;;;;;1.40;1.30;;;;;;;22.03;37.80;100945.13;4540489;28;20058;-55
2023/12/07 06:10:16;;;;;;;1.65;1.20;;;;;;;22.03;38.21;100950.88;4536443;28;20041;-55
2023/12/07 06:12:27;;;;;;;1.50;1.30;;;;;;;22.01;38.17;100944.66;4553493;28;20028;-52
2023/12/07 06:14:37;;;;;;;1.83;1.30;;;;;;;22.02;37.74;100948.38;4552625;28;20037;-52
2023/12/07 06:16:48;;;;;;;1.67;1.30;;;;;;;22.01;37.84;100946.69;4551336;28;20052;-53
2023/12/07 06:18:58;;;;;;;1.48;1.15;;;;;;;21.99;38.23;100943.38;4537937;28;20414;-55
2023/12/07 06:21:09;;;;;;;1.75;1.20;;;;;;;21.99;37.52;100944.19;4552466;28;20901;-52
2023/12/07 06:23:19;;;;;;;1.35;1.20;;;;;;;21.99;37.86;100954.88;4552535;28;20489;-53
2023/12/07 06:25:30;;;;;;;1.33;1.10;;;;;;;22.01;37.77;100953.28;4552802;28;21136;-55
2023/12/07 06:27:41;;;;;;;1.40;1.30;;;;;;;21.99;37.55;100947.06;4552284;28;20044;-52
2023/12/07 06:29:51;;;;;;;2.60;1.38;;;;;;;22.01;37.47;100946.69;4533394;28;20056;-53
2023/12/07 06:32:03;;;;;;;1.40;1.30;;;;;;;21.99;37.44;100949.94;4551822;28;20045;-55
2023/12/07 06:34:13;;;;;;;1.45;1.25;;;;;;;21.98;37.51;100951.16;4553142;28;20079;-54
2023/12/07 06:36:25;;;;;;;1.38;1.23;;;;;;;22.01;37.74;100949.56;4552925;28;20112;-55
2023/12/07 06:38:36;;;;;;;1.67;1.33;;;;;;;22.00;38.14;100954.50;4552116;28;21188;-54
2023/12/07 06:40:46;;;;;;;1.55;1.40;;;;;;;22.00;37.64;100950.78;4551163;28;20044;-52
2023/12/07 06:42:57;;;;;;;1.30;1.20;;;;;;;22.02;37.83;100959.88;4551174;28;20118;-51
2023/12/07 06:45:10;;;;;;;1.33;1.23;;;;;;;22.00;37.40;100963.13;4551949;28;20025;-54
2023/12/07 06:47:21;;;;;;;1.13;1.02;;;;;;;22.02;37.37;100977.13;4551406;28;20494;-54
2023/12/07 06:49:31;;;;;;;1.42;1.23;;;;;;;22.01;37.52;100979.16;4551769;28;20091;-54
2023/12/07 06:51:42;;;;;;;1.27;1.10;;;;;;;22.02;37.49;100971.38;4550788;28;20101;-55
2023/12/07 06:53:52;;;;;;;1.40;1.10;;;;;;;22.02;37.65;100965.63;4552671;28;20041;-52
2023/12/07 06:56:02;;;;;;;1.52;1.17;;;;;;;22.01;37.13;100970.53;4552909;28;20040;-55
2023/12/07 06:58:13;;;;;;;1.30;1.20;;;;;;;22.02;37.04;100977.94;4550221;28;20036;-56
2023/12/07 07:00:24;;;;;;;1.20;1.10;;;;;;;21.99;37.81;100981.53;4551918;28;20579;-56
2023/12/07 07:02:34;;;;;;;1.45;1.30;;;;;;;22.01;37.33;100984.06;4543736;28;20575;-54
2023/12/07 07:04:45;;;;;;;1.65;1.40;;;;;;;22.03;37.26;100982.50;4532768;28;20033;-55
2023/12/07 07:06:56;;;;;;;2.10;1.50;;;;;;;22.11;39.55;100992.16;4553054;28;20115;-54
2023/12/07 07:09:06;;;;;;;2.55;1.92;;;;;;;22.21;39.13;100980.94;4550237;28;20042;-52
2023/12/07 07:11:17;;;;;;;3.80;1.77;;;;;;;22.34;39.13;100989.50;4550963;28;20037;-53
2023/12/07 07:13:27;;;;;;;1.98;1.52;;;;;;;22.31;38.99;100993.13;4550614;28;20021;-56
2023/12/07 07:15:38;;;;;;;2.10;1.60;;;;;;;22.30;39.45;100989.41;4550834;28;20044;-53
2023/12/07 07:17:48;;;;;;;2.97;1.60;;;;;;;22.35;39.11;100996.91;4551359;28;20045;-54
2023/12/07 07:19:58;;;;;;;2.05;1.50;;;;;;;22.18;39.44;100998.91;4550550;28;20031;-54
2023/12/07 07:22:09;;;;;;;1.80;1.33;;;;;;;22.15;38.61;100998.84;4551592;28;20505;-55
2023/12/07 07:24:19;;;;;;;1.55;1.20;;;;;;;22.10;37.64;101005.69;4552041;28;20152;-53
2023/12/07 07:26:30;;;;;;;1.63;1.40;;;;;;;22.11;37.60;101000.78;4551100;28;20512;-53
2023/12/07 07:28:40;;;;;;;1.67;1.20;;;;;;;22.14;37.62;100997.16;4535037;28;20029;-52
2023/12/07 07:30:51;;;;;;;1.33;1.23;;;;;;;22.12;37.27;101000.41;4549835;28;20044;-51
2023/12/07 07:33:02;;;;;;;1.80;1.10;;;;;;;22.08;37.00;100993.72;4550281;28;20178;-52
2023/12/07 07:35:13;;;;;;;1.38;1.17;;;;;;;22.07;36.99;100986.28;4552314;28;20044;-51
2023/12/07 07:37:24;;;;;;;1.23;1.13;;;;;;;22.09;37.34;100992.53;4551478;28;20045;-51
2023/12/07 07:39:34;;;;;;;1.38;1.00;;;;;;;22.12;37.40;100991.78;4551522;28;20409;-55
2023/12/07 07:41:45;;;;;;;1.10;1.00;;;;;;;22.12;37.75;100988.06;4555143;28;20037;-53
2023/12/07 07:43:55;;;;;;;1.13;1.05;;;;;;;22.13;37.43;100989.75;4551663;28;20047;-52
2023/12/07 07:46:06;;;;;;;1.35;1.25;;;;;;;22.15;37.83;100981.59;4550998;28;20087;-51
2023/12/07 07:48:16;;;;;;;1.20;1.10;;;;;;;22.14;37.23;100982.78;4551810;28;20432;-55
2023/12/07 07:50:28;;;;;;;1.67;1.50;;;;;;;22.13;37.22;100984.84;4551474;28;20035;-54
2023/12/07 07:52:40;;;;;;;1.33;1.17;;;;;;;22.14;37.04;100988.53;4550084;28;20110;-54
2023/12/07 07:54:50;;;;;;;1.27;1.10;;;;;;;22.14;36.50;100989.38;4551170;28;20021;-55
2023/12/07 07:57:00;;;;;;;1.20;1.10;;;;;;;22.13;36.92;100996.34;4551231;28;20033;-55
2023/12/07 07:59:11;;;;;;;1.85;1.40;;;;;;;22.10;37.14;100984.75;4552389;28;20033;-54
2023/12/07 08:01:21;;;;;;;2.28;1.45;;;;;;;22.13;38.18;100990.59;4550303;28;20047;-54
2023/12/07 08:03:32;;;;;;;1.83;1.50;;;;;;;22.15;38.33;100988.16;4550873;28;20044;-51
2023/12/07 08:05:42;;;;;;;1.85;1.50;;;;;;;22.18;37.75;100980.84;4550886;28;20087;-50
2023/12/07 08:07:52;;;;;;;1.85;1.50;;;;;;;22.14;37.23;100986.50;4549389;28;20063;-52
2023/12/07 08:10:03;;;;;;;1.48;1.38;;;;;;;22.15;36.88;100981.59;4539196;28;20029;-52
2023/12/07 08:12:14;;;;;;;1.75;1.50;;;;;;;22.15;36.59;100985.28;4551837;28;20036;-54
2023/12/07 08:14:24;;;;;;;1.20;1.10;;;;;;;22.11;36.66;100997.91;4550796;28;20402;-51
2023/12/07 08:16:35;;;;;;;1.35;1.20;;;;;;;22.10;36.95;100991.31;4551024;28;20048;-51
2023/12/07 08:18:45;;;;;;;2.05;1.20;;;;;;;22.10;37.27;100990.50;4549512;28;20095;-50
2023/12/07 08:20:57;;;;;;;3.25;1.50;;;;;;;22.13;38.96;101002.09;4551453;28;20412;-52
2023/12/07 08:23:07;;;;;;;1.70;1.17;;;;;;;22.14;37.08;101000.03;4553310;28;20036;-52
2023/12/07 08:25:17;;;;;;;1.73;1.27;;;;;;;22.13;37.68;101001.25;4553651;28;20044;-51
2023/12/07 08:27:28;;;;;;;1.38;1.27;;;;;;;22.11;37.52;101001.63;4554112;28;20044;-54
2023/12/07 08:29:38;;;;;;;2.47;1.45;;;;;;;22.18;39.49;101004.69;4553682;28;20022;-52
2023/12/07 08:31:48;;;;;;;3.38;1.50;;;;;;;22.32;39.59;101007.13;4554564;28;20072;-50
2023/12/07 08:34:00;;;;;;;2.78;1.70;;;;;;;22.40;39.38;101005.25;4551689;28;20064;-54
2023/12/07 08:54:29;;;;;;;2.60;1.63;;;;;;;22.50;39.49;100987.47;4620504;27;20747;-50
2023/12/07 08:56:46;;;;;;;1.95;1.63;;;;;;;22.62;39.19;100996.03;4621490;27;20042;-53
2023/12/07 08:58:57;;;;;;;1.88;1.48;;;;;;;22.63;39.15;100992.78;4603302;27;20027;-54
2023/12/07 09:01:07;;;;;;;3.22;1.50;;;;;;;22.57;39.69;100999.19;4605944;27;20035;-53
2023/12/07 09:03:41;;;;;;;2.13;1.60;;;;;;;22.57;39.42;100987.66;4600441;27;20126;-55
2023/12/07 09:05:51;;;;;;;2.35;1.80;;;;;;;22.02;36.93;100988.63;4603334;27;20741;-55
2023/12/07 09:08:08;;;;;;;2.75;1.63;;;;;;;22.29;40.27;100986.88;4603913;27;20032;-55
2023/12/07 09:10:24;;;;;;;3.55;2.50;;;;;;;21.96;27.10;100990.09;4603722;27;20028;-55
2023/12/07 09:12:35;;;;;;;2.22;1.60;;;;;;;22.21;40.16;100992.44;4601560;27;23936;-55
2023/12/07 09:14:46;;;;;;;3.72;1.80;;;;;;;22.35;40.07;100994.03;4604851;27;20122;-56
2023/12/07 09:16:56;;;;;;;2.60;1.45;;;;;;;22.38;39.98;100990.41;4604591;27;20050;-53
2023/12/07 09:19:07;;;;;;;1.48;1.23;;;;;;;22.36;40.11;100992.84;4602022;27;20158;-55
2023/12/07 09:21:17;;;;;;;2.67;1.70;;;;;;;22.45;39.98;100996.38;4586901;27;20615;-50
2023/12/07 09:23:28;;;;;;;3.40;1.83;;;;;;;22.26;40.64;100999.13;4602588;27;20036;-50
2023/12/07 09:25:40;;;;;;;2.42;1.48;;;;;;;22.31;40.07;101002.56;4586700;27;20032;-51
2023/12/07 09:27:51;;;;;;;4.20;1.50;;;;;;;22.39;40.28;101007.31;4604182;27;20050;-55
2023/12/07 09:30:01;;;;;;;3.40;1.60;;;;;;;22.40;40.24;101011.03;4603177;27;20114;-55
2023/12/07 09:32:12;;;;;;;5.03;2.10;;;;;;;22.51;40.05;101001.47;4583915;27;20519;-54
2023/12/07 09:34:23;;;;;;;4.28;1.73;;;;;;;22.55;39.71;101013.13;4603525;27;21250;-53
2023/12/07 09:36:33;;;;;;;2.88;1.90;;;;;;;22.55;40.08;101013.13;4604494;27;20039;-54
2023/12/07 09:38:44;;;;;;;4.57;1.60;;;;;;;22.51;40.11;101015.00;4586882;27;20032;-49
2023/12/07 09:41:07;;;;;;;3.60;1.80;;;;;;;22.64;39.48;101016.63;4602533;27;20903;-52
2023/12/07 09:43:17;;;;;;;2.83;1.98;;;;;;;22.51;39.74;101017.91;4603373;27;20692;-50
2023/12/07 09:45:28;;;;;;;4.47;1.80;;;;;;;22.48;40.13;101012.88;4604613;27;20039;-51
2023/12/07 09:47:39;;;;;;;3.55;1.63;;;;;;;22.55;39.83;101013.13;4603805;27;20067;-54
2023/12/07 09:49:50;;;;;;;4.80;1.70;;;;;;;22.60;39.83;101013.66;4603517;27;20032;-52
2023/12/07 09:52:02;;;;;;;5.72;1.92;;;;;;;22.54;39.70;101014.31;4602465;27;20039;-50
2023/12/07 09:54:13;;;;;;;5.90;2.00;;;;;;;22.45;40.32;101008.72;4602845;27;20972;-53
2023/12/07 09:56:23;;;;;;;2.65;1.70;;;;;;;22.45;40.24;101020.22;4603313;27;20128;-53
2023/12/07 09:58:34;;;;;;;2.35;1.60;;;;;;;22.12;40.96;101011.91;4591543;27;20117;-52
2023/12/07 10:00:46;;;;;;;4.80;2.22;;;;;;;22.11;40.59;101007.38;4602032;27;20123;-52
2023/12/07 10:02:57;;;;;;;4.47;1.92;;;;;;;22.26;40.52;101002.84;4602789;27;20043;-50
2023/12/07 10:05:10;;;;;;;6.22;2.08;;;;;;;22.32;40.84;101004.25;4592707;27;20048;-53
2023/12/07 10:07:33;;;;;;;4.80;1.92;;;;;;;22.28;40.39;100999.59;4588995;27;20059;-55
2023/12/07 10:09:44;;;;;;;3.25;2.95;;;;;;;21.82;27.10;100989.66;4579937;27;20048;-52
2023/12/07 10:12:05;;;;;;;3.42;2.97;;;;;;;21.67;26.11;100988.41;4587449;27;20040;-54
2023/12/07 10:14:15;;;;;;;3.63;2.83;;;;;;;21.59;25.99;100986.50;4589623;27;20130;-55
2023/12/07 10:16:26;;;;;;;3.47;3.10;;;;;;;21.51;25.82;100987.50;4591435;27;20126;-55
2023/12/07 10:18:37;;;;;;;3.33;2.88;;;;;;;21.48;26.13;100985.34;4590686;27;20464;-55
2023/12/07 10:20:47;;;;;;;2.92;2.50;;;;;;;21.44;26.02;100984.41;4590080;27;21070;-53
2023/12/07 10:23:09;;;;;;;3.00;2.70;;;;;;;21.41;25.83;100976.50;4590062;27;20031;-50
2023/12/07 10:25:21;;;;;;;2.95;2.65;;;;;;;21.39;26.05;100972.34;4590340;27;20040;-51
2023/12/07 10:27:31;;;;;;;3.67;2.88;;;;;;;21.38;26.33;100968.63;4590724;27;20097;-51